Wapato, WA (98951)

4:41 AM PST on December 10, 2016 (GMT -0800)
Sunnyslope Ranch | | Change Station

Elev 1023 ft 46.48 °N, 120.36 °W | Updated 39 seconds ago

Mostly Cloudy
Mostly Cloudy
18.9 °F
Feels Like 19 °F
N
0.0
Wind Variable Wind from NE
Gusts 0.0 mph

Today
High -- | Low -- °F
--% Chance of Precip.
Yesterday
High -- | Low -- °F
Precip. -- in
Pressure 29.97 in
Visibility 10.0 miles
Clouds Clear
Windchill 19 °F
Dew Point 10 °F
Humidity 67%
Rainfall 0.00 in
Snow Depth Not available.
7:34 AM 4:14 PM
Waxing Gibbous, 83% visible
METAR KYKM 101153Z AUTO 30005KT 10SM CLR M09/M11 A2992 RMK AO2 SLP147 60004 70006 T10891106 11050 21089 58008
Pressure 29.97 in
Visibility 10.0 miles
Clouds Clear
Windchill 19 °F
Dew Point 10 °F
Humidity 67%
Rainfall 0.00 in
Snow Depth Not available.
7:34 AM 4:14 PM
Waxing Gibbous, 83% visible
METAR KYKM 101153Z AUTO 30005KT 10SM CLR M09/M11 A2992 RMK AO2 SLP147 60004 70006 T10891106 11050 21089 58008

10-Day Weather Forecast

Almanac

Astronomy

Dec. 10, 2016 Rise Set
Actual Time
Civil Twilight
Nautical Twilight
Astronomical Twilight
Moon
Length of Visible Light
Length of Day
Tomorrow will be .
, % of the Moon is Illuminated

Today's Extremes

State Highs State Lows

Community

WunderPhotos

Upload Photos

1,956,540 photos uploaded!

WunderBlog® & News

Nearby

Air Quality

  Air Quality AQ Index Pollutant
Not available.

Snow Depth

Station Depth Elevation

Earthquake Activity

City Distance Mag. Time & Date
Minimum magnitude displayed is 2.5.

Coastal Water Temperatures

Place Temperature

Stations

Nearby Weather Stations

Station Location Temp. Windchill Dew Point Humidity Wind Precip. Elev Updated Type
                   

Watches & Warnings

There are currently no watches in effect.